Aldie, Virginia
Current Conditions -  °F | °C
As of 5:15 AM on Thursday 18 Dec 2014 (Local Time) from KJYO Reporting Station
Overcast Overcast  
Wind Chill: 25°   Ceiling: 4200
Heat Index: 34°   Visibility: 10mi
Dew Point: 23°   Wind: 13mph
Humidity: 65%   Direction: 310°NW
Pressure: 30.13"   Gusts: NA
Location:  38.98°N, 77.64°W
Report Text: KJYO 181015Z AUTO 31011KT 10SM OVC042 01/M05 A3013 RMK AO2
Loading
Personal Weather Stations






























Interactive Weather Map New forecast layout! Learn more

10-Day Weather Forecast

Advertisements
Track Severe Weather on mobile